Terminal Aerodrome Forecast
Issued by NWS Jackson, MS

Home | Current Version | Previous Version | Text Only | Print | Product List | Glossary On
Versions: 1 2 3 4 5 6 7 8 9 10 11
240
FTUS44 KJAN 041122
TAFMEI
TAF
KMEI 041122Z 0412/0512 09006KT 6SM -RA OVC014
     FM041800 VRB04KT 5SM BR VCSH OVC007=

USA.gov is the U.S. government's official web portal to all federal, state and local government web resources and services.